createdAt,value
2022-09-28T04:27:01.960Z,0.2
2022-09-28T04:28:00.938Z,0.3
2022-09-28T04:31:00.922Z,0.5
2022-09-28T04:32:00.971Z,0.6
2022-09-28T04:33:00.928Z,0.7
2022-09-28T04:34:00.919Z,0.9
2022-09-28T04:35:01.172Z,1.0
2022-09-28T04:36:00.921Z,1.1
2022-09-28T04:37:02.018Z,1.3
2022-09-28T04:38:05.997Z,1.5
2022-09-28T04:39:00.932Z,1.7
2022-09-28T04:40:01.279Z,2.0
2022-09-28T04:41:01.008Z,2.3
2022-09-28T04:42:01.275Z,2.7
2022-09-28T04:43:00.931Z,3.2
2022-09-28T04:44:00.924Z,3.7
2022-09-28T04:46:01.016Z,5.1
2022-09-28T04:47:04.917Z,6.1
2022-09-28T04:48:00.935Z,7.1
2022-09-28T04:49:01.199Z,8.1
2022-09-28T04:50:01.158Z,9.7
2022-09-28T04:51:00.935Z,11.2
2022-09-28T04:52:00.931Z,13.5
2022-09-28T04:53:00.928Z,15.7
2022-09-28T04:54:00.934Z,18.0
2022-09-28T04:55:01.672Z,21.6
2022-09-28T04:56:00.932Z,25.2
2022-09-28T04:57:00.956Z,31.1
2022-09-28T04:58:00.935Z,37.1
2022-09-28T04:59:00.997Z,43.0
2022-09-28T05:01:00.978Z,60.2
2022-09-28T05:02:00.972Z,73.7
2022-09-28T05:03:00.993Z,87.1
2022-09-28T05:04:00.938Z,100.6
2022-09-28T05:05:01.453Z,118.7
2022-09-28T05:06:00.930Z,136.7
2022-09-28T05:07:00.934Z,161.5
2022-09-28T05:08:01.208Z,186.2
2022-09-28T05:09:01.221Z,210.9
2022-09-28T05:10:01.446Z,245.9
2022-09-28T05:11:00.938Z,280.8
2022-09-28T05:12:00.933Z,324.4
2022-09-28T05:13:00.956Z,368.0
2022-09-28T05:14:00.934Z,411.6
2022-09-28T05:16:05.140Z,524.9
2022-09-28T05:17:01.015Z,590.7
2022-09-28T05:18:00.944Z,656.4
2022-09-28T05:19:00.959Z,722.1
2022-09-28T05:20:01.449Z,804.5
2022-09-28T05:21:00.950Z,886.8
2022-09-28T05:22:00.973Z,981.7
2022-09-28T05:23:00.938Z,1076.7
2022-09-28T05:24:00.938Z,1171.6
2022-09-28T05:26:02.609Z,1388.7
2022-09-28T05:27:00.943Z,1514.1
2022-09-28T05:28:00.943Z,1639.5
2022-09-28T05:29:01.263Z,1764.9
2022-09-28T05:30:01.595Z,1904.9
2022-09-28T05:31:00.944Z,2044.9
2022-09-28T05:32:00.988Z,2212.8
2022-09-28T05:33:01.223Z,2380.7
2022-09-28T05:34:00.953Z,2548.7
2022-09-28T05:35:01.181Z,2731.1
2022-09-28T05:36:01.723Z,2913.6
2022-09-28T05:37:05.951Z,3105.6
2022-09-28T05:38:00.944Z,3297.6
2022-09-28T05:39:00.944Z,3489.6
2022-09-28T05:41:04.471Z,3888.0
2022-09-28T05:42:00.944Z,4112.1
2022-09-28T05:43:00.943Z,4336.3
2022-09-28T05:44:00.952Z,4560.4
2022-09-28T05:46:02.100Z,5078.5
2022-09-28T05:47:00.948Z,5350.3
2022-09-28T05:48:00.952Z,5622.0
2022-09-28T05:49:00.959Z,5893.7
2022-09-28T05:50:01.198Z,6194.5
2022-09-28T05:51:00.962Z,6495.2
2022-09-28T05:52:01.229Z,6819.2
2022-09-28T05:53:01.209Z,7143.2
2022-09-28T05:54:05.594Z,7467.2
2022-09-28T05:56:01.231Z,8079.1
2022-09-28T05:57:00.948Z,8327.2
2022-09-28T05:58:01.150Z,8575.3
2022-09-28T05:59:00.950Z,8823.5
2022-09-28T06:01:01.013Z,9238.3
2022-09-28T06:02:00.997Z,9494.7
2022-09-28T06:03:02.576Z,9751.2
2022-09-28T06:04:00.962Z,10007.7
2022-09-28T06:05:01.200Z,10211.4
2022-09-28T06:06:00.956Z,10415.1
2022-09-28T06:07:00.953Z,10611.3
2022-09-28T06:08:00.959Z,10807.5
2022-09-28T06:09:00.959Z,11003.7
2022-09-28T06:11:00.955Z,11533.3
2022-09-28T06:12:00.983Z,11858.7
2022-09-28T06:13:00.950Z,12184.1
2022-09-28T06:14:01.110Z,12509.5
2022-09-28T06:16:00.952Z,13306.2
2022-09-28T06:17:04.241Z,13735.5
2022-09-28T06:18:00.958Z,14164.9
2022-09-28T06:19:00.957Z,14594.2
2022-09-28T06:20:01.509Z,15207.5
2022-09-28T06:21:01.993Z,15820.9
2022-09-28T06:22:00.961Z,16383.5
2022-09-28T06:23:00.965Z,16946.2
2022-09-28T06:24:00.952Z,17508.9
2022-09-28T06:25:01.180Z,17978.9
2022-09-28T06:26:00.958Z,18449.0
2022-09-28T06:27:00.957Z,18892.9
2022-09-28T06:28:00.965Z,19336.7
2022-09-28T06:29:00.966Z,19780.6
2022-09-28T06:31:01.078Z,20915.0
2022-09-28T06:32:00.962Z,21453.0
2022-09-28T06:33:00.990Z,21991.0
2022-09-28T06:34:00.976Z,22529.0
2022-09-28T06:35:01.217Z,22805.3
2022-09-28T06:36:00.966Z,23081.7
2022-09-28T06:37:00.962Z,23485.8
2022-09-28T06:38:00.963Z,23889.9
2022-09-28T06:39:00.973Z,24294.1
2022-09-28T06:41:01.040Z,25472.5
2022-09-28T06:42:00.965Z,25971.1
2022-09-28T06:43:00.966Z,26469.8
2022-09-28T06:44:00.967Z,26968.5
2022-09-28T06:46:01.047Z,27450.2
2022-09-28T06:47:00.964Z,27690.4
2022-09-28T06:48:00.966Z,27930.6
2022-09-28T06:49:00.998Z,28170.8
2022-09-28T06:50:01.830Z,28582.6
2022-09-28T06:51:01.995Z,28994.4
2022-09-28T06:52:01.253Z,29262.2
2022-09-28T06:53:00.973Z,29530.0
2022-09-28T06:54:00.988Z,29797.8
2022-09-28T06:56:01.264Z,30379.0
2022-09-28T06:57:00.968Z,30933.6
2022-09-28T06:58:00.972Z,31488.2
2022-09-28T06:59:00.974Z,32042.8
2022-09-28T07:01:01.026Z,32918.3
2022-09-28T07:02:01.090Z,33321.4
2022-09-28T07:03:01.251Z,33724.5
2022-09-28T07:04:01.060Z,34127.7
2022-09-28T07:05:02.271Z,34820.3
2022-09-28T07:06:00.978Z,35513.0
2022-09-28T07:07:00.969Z,36388.4
2022-09-28T07:08:00.970Z,37263.8
2022-09-28T07:09:12.681Z,38139.2
2022-09-28T07:10:16.250Z,39208.9
2022-09-28T07:11:01.105Z,40278.5
2022-09-28T07:12:02.069Z,41641.3
2022-09-28T07:13:00.984Z,43004.1
2022-09-28T07:14:00.974Z,44366.9
2022-09-28T07:16:01.185Z,46294.8
2022-09-28T07:17:13.468Z,47178.8
2022-09-28T07:18:03.424Z,48062.8
2022-09-28T07:19:00.977Z,48946.8
2022-09-28T07:20:11.274Z,49659.7
2022-09-28T07:21:01.231Z,50372.7
2022-09-28T07:22:04.964Z,51275.2
2022-09-28T07:23:10.635Z,52177.7
2022-09-28T07:24:00.974Z,53080.3
2022-09-28T07:25:01.014Z,54112.4
2022-09-28T07:26:01.574Z,55144.5
2022-09-28T07:27:01.021Z,55680.5
2022-09-28T07:28:00.973Z,56216.4
2022-09-28T07:29:00.982Z,56752.3
2022-09-28T07:31:01.237Z,58929.1
2022-09-28T07:32:00.985Z,60027.0
2022-09-28T07:33:00.974Z,61124.9
2022-09-28T07:34:00.974Z,62222.7
2022-09-28T07:35:01.754Z,63095.7
2022-09-28T07:36:01.188Z,63968.6
2022-09-28T07:37:01.043Z,64490.7
2022-09-28T07:38:00.977Z,65012.9
2022-09-28T07:39:01.221Z,65535.0
2022-09-28T08:35:01.057Z,65329.3
2022-09-28T08:36:00.680Z,65182.4
2022-09-28T08:37:00.674Z,65226.5
2022-09-28T08:38:01.724Z,65260.8
2022-09-28T08:39:00.685Z,65288.2
2022-09-28T08:40:01.204Z,65310.6
2022-09-28T08:41:00.752Z,65329.3
2022-09-28T08:42:00.678Z,65345.2
2022-09-28T08:43:00.674Z,65358.7
2022-09-28T08:44:00.681Z,65370.5
2022-09-28T08:45:01.684Z,65370.5
2022-09-28T08:51:00.685Z,65535.0
2022-09-28T09:00:11.957Z,65535.0
2022-09-28T09:15:01.899Z,65535.0
2022-09-28T09:45:06.706Z,65535.0
2022-09-28T10:45:01.742Z,65535.0
2022-09-28T11:00:03.161Z,65535.0
2022-09-28T11:30:01.457Z,65535.0
2022-09-28T11:45:01.812Z,65535.0
2022-09-28T12:30:01.496Z,65535.0
2022-09-28T12:45:02.060Z,65535.0
2022-09-28T13:00:03.092Z,65535.0
2022-09-28T13:30:16.904Z,65535.0
2022-09-28T14:00:03.395Z,65535.0
2022-09-28T14:15:01.814Z,65375.7
2022-09-28T14:16:01.102Z,65216.5
2022-09-28T14:17:00.798Z,65057.2
2022-09-28T14:18:00.789Z,64584.9
2022-09-28T14:19:00.786Z,64112.5
2022-09-28T14:20:01.458Z,63699.8
2022-09-28T14:21:00.787Z,63287.1
2022-09-28T14:22:00.794Z,62874.3
2022-09-28T14:23:00.786Z,62233.0
2022-09-28T14:24:00.797Z,61591.7
2022-09-28T14:25:06.065Z,60744.8
2022-09-28T14:26:00.795Z,59897.9
2022-09-28T14:27:01.112Z,59051.1
2022-09-28T14:28:00.785Z,58763.3
2022-09-28T14:29:00.786Z,58475.6
2022-09-28T14:30:01.515Z,58459.0
2022-09-28T14:31:00.840Z,58442.4
2022-09-28T14:32:00.816Z,58425.8
2022-09-28T14:33:00.855Z,58898.1
2022-09-28T14:34:00.790Z,59370.5
2022-09-28T14:35:01.005Z,59783.2
2022-09-28T14:36:05.820Z,60195.9
2022-09-28T14:37:00.852Z,60608.7
2022-09-28T14:38:00.794Z,61250.0
2022-09-28T14:39:00.792Z,61891.3
2022-09-28T14:40:03.418Z,62738.2
2022-09-28T14:41:00.867Z,63585.1
2022-09-28T14:42:00.794Z,64431.9
2022-09-28T14:43:00.785Z,64719.7
2022-09-28T14:44:00.787Z,65007.4
2022-09-28T14:46:00.887Z,64735.5
2022-09-28T14:47:00.785Z,64599.6
2022-09-28T14:48:00.984Z,64007.9
2022-09-28T14:49:00.791Z,63416.3
2022-09-28T14:51:00.823Z,61896.1
2022-09-28T14:52:00.786Z,61136.1
2022-09-28T14:53:00.796Z,60267.1
2022-09-28T14:54:00.790Z,59398.1
2022-09-28T14:56:00.811Z,57920.6
2022-09-28T14:57:00.790Z,57181.9
2022-09-28T14:58:00.792Z,56495.5
2022-09-28T14:59:00.799Z,55809.2
2022-09-28T15:01:00.835Z,54920.0
2022-09-28T15:02:00.769Z,54475.4
2022-09-28T15:03:00.789Z,54260.1
2022-09-28T15:04:00.858Z,54044.9
2022-09-28T15:06:00.845Z,54025.3
2022-09-28T15:07:01.033Z,54015.5
2022-09-28T15:08:00.805Z,54124.1
2022-09-28T15:09:00.794Z,54232.7
2022-09-28T15:10:01.011Z,54122.7
2022-09-28T15:11:00.847Z,54012.8
2022-09-28T15:12:00.801Z,53902.9
2022-09-28T15:13:00.797Z,53668.6
2022-09-28T15:14:00.810Z,53434.3
2022-09-28T15:16:00.892Z,53227.5
2022-09-28T15:17:00.800Z,53124.1
2022-09-28T15:18:00.800Z,53059.9
2022-09-28T15:19:00.801Z,52995.6
2022-09-28T15:20:01.390Z,52731.8
2022-09-28T15:21:00.840Z,52468.0
2022-09-28T15:22:01.891Z,52204.2
2022-09-28T15:23:00.802Z,51903.0
2022-09-28T15:24:00.809Z,51601.8
2022-09-28T15:25:02.615Z,51610.7
2022-09-28T15:26:00.830Z,51619.7
2022-09-28T15:27:00.800Z,51628.6
2022-09-28T15:28:00.806Z,51602.9
2022-09-28T15:29:00.813Z,51577.3
2022-09-28T15:31:00.971Z,50148.5
2022-09-28T15:32:00.806Z,49434.1
2022-09-28T15:33:00.806Z,48418.7
2022-09-28T15:34:00.809Z,47403.4
2022-09-28T15:35:02.499Z,46788.7
2022-09-28T15:36:00.876Z,46173.9
2022-09-28T15:37:00.806Z,45559.2
2022-09-28T15:38:00.809Z,45576.9
2022-09-28T15:39:00.833Z,45594.5
2022-09-28T15:40:01.044Z,45963.9
2022-09-28T15:41:00.953Z,46333.2
2022-09-28T15:42:00.806Z,46702.5
2022-09-28T15:43:00.805Z,47112.9
2022-09-28T15:44:00.811Z,47523.3
2022-09-28T15:46:00.985Z,47842.0
2022-09-28T15:47:00.815Z,48001.3
2022-09-28T15:48:00.808Z,48252.1
2022-09-28T15:49:00.824Z,48502.9
2022-09-28T15:50:06.050Z,48546.3
2022-09-28T15:51:00.911Z,48589.7
2022-09-28T15:52:01.114Z,48633.1
2022-09-28T15:53:01.836Z,47646.2
2022-09-28T15:54:00.807Z,46659.3
2022-09-28T15:55:01.955Z,44857.5
2022-09-28T15:56:00.861Z,43055.8
2022-09-28T15:57:00.807Z,41254.1
2022-09-28T15:58:01.086Z,39507.5
2022-09-28T15:59:00.812Z,37760.9
2022-09-28T16:00:08.188Z,36681.0
2022-09-28T16:01:00.841Z,35601.1
2022-09-28T16:02:02.503Z,34521.3
2022-09-28T16:03:00.840Z,33574.1
2022-09-28T16:04:00.806Z,32627.0
2022-09-28T16:05:02.799Z,31575.9
2022-09-28T16:06:00.833Z,30524.7
2022-09-28T16:07:00.809Z,29473.6
2022-09-28T16:08:01.866Z,28788.5
2022-09-28T16:09:00.822Z,28103.3
2022-09-28T16:10:06.580Z,27581.2
2022-09-28T16:11:00.845Z,27059.1
2022-09-28T16:12:00.818Z,26536.9
2022-09-28T16:13:00.821Z,25936.4
2022-09-28T16:14:00.808Z,25335.9
2022-09-28T16:15:03.015Z,24880.6
2022-09-28T16:16:00.936Z,24425.3
2022-09-28T16:17:00.876Z,23970.1
2022-09-28T16:18:00.885Z,23550.5
2022-09-28T16:19:01.905Z,23131.0
2022-09-28T16:20:11.557Z,22736.7
2022-09-28T16:21:01.297Z,22342.5
2022-09-28T16:22:00.882Z,21948.2
2022-09-28T16:23:00.814Z,21579.3
2022-09-28T16:24:00.859Z,21210.5
2022-09-28T16:25:02.130Z,20886.3
2022-09-28T16:26:00.881Z,20562.1
2022-09-28T16:27:00.849Z,20237.9
2022-09-28T16:28:00.821Z,19981.2
2022-09-28T16:29:00.823Z,19724.5
2022-09-28T16:31:00.904Z,19289.3
2022-09-28T16:32:00.855Z,19071.7
2022-09-28T16:33:00.902Z,18858.2
2022-09-28T16:34:00.889Z,18644.7
2022-09-28T16:35:02.559Z,18410.7
2022-09-28T16:36:00.818Z,18176.8
2022-09-28T16:37:01.234Z,17942.9
2022-09-28T16:38:00.882Z,17675.1
2022-09-28T16:39:00.820Z,17407.3
2022-09-28T16:40:06.772Z,17148.1
2022-09-28T16:41:01.143Z,16889.0
2022-09-28T16:42:00.966Z,16629.9
2022-09-28T16:43:00.841Z,16332.9
2022-09-28T16:44:00.820Z,16035.9
2022-09-28T16:46:00.906Z,15338.5
2022-09-28T16:47:00.887Z,14989.9
2022-09-28T16:48:00.861Z,14596.5
2022-09-28T16:49:00.821Z,14203.1
2022-09-28T16:51:00.823Z,13345.1
2022-09-28T16:52:00.825Z,12916.1
2022-09-28T16:53:00.856Z,12466.3
2022-09-28T16:54:00.885Z,12016.6
2022-09-28T16:55:46.957Z,11504.9
2022-09-28T16:56:00.834Z,10993.1
2022-09-28T16:57:00.821Z,10481.4
2022-09-28T16:58:00.993Z,9947.2
2022-09-28T16:59:00.921Z,9413.0
2022-09-28T17:01:01.190Z,8345.7
2022-09-28T17:02:00.949Z,7812.0
2022-09-28T17:03:00.926Z,7302.4
2022-09-28T17:04:00.826Z,6792.8
2022-09-28T17:05:01.551Z,6342.2
2022-09-28T17:06:00.832Z,5891.6
2022-09-28T17:07:00.832Z,5441.0
2022-09-28T17:08:00.857Z,5045.3
2022-09-28T17:09:00.894Z,4649.7
2022-09-28T17:10:01.657Z,4305.3
2022-09-28T17:11:20.371Z,3960.9
2022-09-28T17:12:00.815Z,3616.5
2022-09-28T17:13:00.887Z,3319.2
2022-09-28T17:14:05.836Z,3021.9
2022-09-28T17:15:01.817Z,2769.9
2022-09-28T17:16:00.892Z,2517.8
2022-09-28T17:17:08.855Z,2265.7
2022-09-28T17:18:01.015Z,2060.5
2022-09-28T17:19:00.892Z,1855.2
2022-09-28T17:20:01.575Z,1681.5
2022-09-28T17:21:00.901Z,1507.9
2022-09-28T17:22:00.832Z,1334.2
2022-09-28T17:23:00.858Z,1184.9
2022-09-28T17:24:00.913Z,1035.7
2022-09-28T17:26:00.830Z,794.2
2022-09-28T17:27:00.852Z,673.5
2022-09-28T17:28:00.983Z,582.0
2022-09-28T17:29:00.898Z,490.5
2022-09-28T17:30:01.894Z,429.6
2022-09-28T17:31:00.893Z,368.7
2022-09-28T17:32:01.208Z,307.7
2022-09-28T17:33:00.870Z,266.8
2022-09-28T17:34:00.830Z,225.9
2022-09-28T17:35:24.894Z,197.0
2022-09-28T17:36:00.899Z,168.1
2022-09-28T17:37:00.895Z,139.3
2022-09-28T17:38:00.970Z,119.2
2022-09-28T17:39:00.841Z,99.1
2022-09-28T17:41:00.932Z,72.1
2022-09-28T17:42:00.842Z,58.5
2022-09-28T17:43:00.969Z,49.8
2022-09-28T17:44:00.845Z,41.1
2022-09-28T17:45:01.696Z,35.4
2022-09-28T17:46:02.103Z,29.7
2022-09-28T17:47:00.836Z,24.1
2022-09-28T17:48:00.870Z,20.5
2022-09-28T17:49:00.842Z,16.9
2022-09-28T17:51:00.836Z,12.2
2022-09-28T17:52:00.904Z,9.9
2022-09-28T17:53:00.873Z,8.4
2022-09-28T17:54:00.856Z,6.9
2022-09-28T17:55:01.884Z,6.0
2022-09-28T17:56:00.852Z,5.1
2022-09-28T17:57:00.845Z,4.1
2022-09-28T17:58:00.880Z,3.5
2022-09-28T17:59:00.937Z,2.9
2022-09-28T18:00:03.105Z,2.6
2022-09-28T18:01:00.836Z,2.3
2022-09-28T18:02:02.456Z,1.9
2022-09-28T18:03:00.951Z,1.7
2022-09-28T18:04:00.835Z,1.4
2022-09-28T18:06:00.821Z,1.0
2022-09-28T18:07:00.839Z,0.8
2022-09-28T18:08:00.872Z,0.7
2022-09-28T18:09:00.845Z,0.5
2022-09-28T18:11:00.842Z,0.4
2022-09-28T18:12:00.849Z,0.3
2022-09-28T18:14:01.318Z,0.2
